Detroit Lakes, Minnesota
Current Conditions -  °F | °C
As of 11:55 PM on Friday 19 Dec 2014 (Local Time) from KDTL Reporting Station
Haze Haze  
Wind Chill: 23°   Ceiling: 400
Heat Index: 30°   Visibility: 3mi
Dew Point: 30°   Wind: 8mph
Humidity: 100%   Direction: 190°S
Pressure: 30.02"   Gusts: NA
Location:  46.82°N, 95.84°W
Report Text: KDTL 200555Z AUTO 19007KT 3SM BR OVC004 M01/M01 A3002 RMK AO2
Loading
Personal Weather Stations






























Interactive Weather Map New forecast layout! Learn more

10-Day Weather Forecast

Advertisements
Track Severe Weather on mobile